sensor_id;sensor_type;location;lat;lon;timestamp;temperature;humidity
18225;DHT22;9237;48.590;8.854;2022-10-30T00:00:59;12.10;99.90
18225;DHT22;9237;48.590;8.854;2022-10-30T00:03:26;11.90;99.90
18225;DHT22;9237;48.590;8.854;2022-10-30T00:05:53;11.80;99.90
18225;DHT22;9237;48.590;8.854;2022-10-30T00:08:21;11.70;99.90
18225;DHT22;9237;48.590;8.854;2022-10-30T00:10:51;11.60;99.90
18225;DHT22;9237;48.590;8.854;2022-10-30T00:13:19;11.60;99.90
18225;DHT22;9237;48.590;8.854;2022-10-30T00:15:47;11.60;99.90
18225;DHT22;9237;48.590;8.854;2022-10-30T00:18:14;11.80;99.90
18225;DHT22;9237;48.590;8.854;2022-10-30T00:20:41;11.90;99.90
18225;DHT22;9237;48.590;8.854;2022-10-30T00:23:08;11.90;99.90
18225;DHT22;9237;48.590;8.854;2022-10-30T00:25:35;11.80;99.90
18225;DHT22;9237;48.590;8.854;2022-10-30T00:28:05;11.80;99.90
18225;DHT22;9237;48.590;8.854;2022-10-30T00:30:32;11.80;99.90
18225;DHT22;9237;48.590;8.854;2022-10-30T00:32:59;11.90;99.90
18225;DHT22;9237;48.590;8.854;2022-10-30T00:35:26;11.80;99.90
18225;DHT22;9237;48.590;8.854;2022-10-30T00:37:53;11.60;99.90
18225;DHT22;9237;48.590;8.854;2022-10-30T00:40:20;11.60;99.90
18225;DHT22;9237;48.590;8.854;2022-10-30T00:42:47;11.60;99.90
18225;DHT22;9237;48.590;8.854;2022-10-30T00:45:16;11.60;99.90
18225;DHT22;9237;48.590;8.854;2022-10-30T00:47:45;11.70;99.90
18225;DHT22;9237;48.590;8.854;2022-10-30T00:50:17;11.80;99.90
18225;DHT22;9237;48.590;8.854;2022-10-30T00:52:51;11.90;99.90
18225;DHT22;9237;48.590;8.854;2022-10-30T00:55:23;12.00;99.90
18225;DHT22;9237;48.590;8.854;2022-10-30T00:57:52;11.90;99.90
18225;DHT22;9237;48.590;8.854;2022-10-30T01:00:21;11.90;99.90
18225;DHT22;9237;48.590;8.854;2022-10-30T01:02:50;11.90;99.90
18225;DHT22;9237;48.590;8.854;2022-10-30T01:05:19;11.80;99.90
18225;DHT22;9237;48.590;8.854;2022-10-30T01:07:48;11.70;99.90
18225;DHT22;9237;48.590;8.854;2022-10-30T01:10:15;11.70;99.90
18225;DHT22;9237;48.590;8.854;2022-10-30T01:12:42;11.60;99.90
18225;DHT22;9237;48.590;8.854;2022-10-30T01:15:11;11.50;99.90
18225;DHT22;9237;48.590;8.854;2022-10-30T01:18:06;11.40;99.90
18225;DHT22;9237;48.590;8.854;2022-10-30T01:21:03;11.40;99.90
18225;DHT22;9237;48.590;8.854;2022-10-30T01:23:38;11.40;99.90
18225;DHT22;9237;48.590;8.854;2022-10-30T01:26:14;11.50;99.90
18225;DHT22;9237;48.590;8.854;2022-10-30T01:28:58;11.40;99.90
18225;DHT22;9237;48.590;8.854;2022-10-30T01:31:43;11.40;99.90
18225;DHT22;9237;48.590;8.854;2022-10-30T01:34:19;11.40;99.90
18225;DHT22;9237;48.590;8.854;2022-10-30T01:36:53;11.40;99.90
18225;DHT22;9237;48.590;8.854;2022-10-30T01:39:25;11.40;99.90
18225;DHT22;9237;48.590;8.854;2022-10-30T01:41:52;11.40;99.90
18225;DHT22;9237;48.590;8.854;2022-10-30T01:44:23;11.40;99.90
18225;DHT22;9237;48.590;8.854;2022-10-30T01:47:02;11.50;99.90
18225;DHT22;9237;48.590;8.854;2022-10-30T01:49:54;11.50;99.90
18225;DHT22;9237;48.590;8.854;2022-10-30T01:52:30;11.30;99.90
18225;DHT22;9237;48.590;8.854;2022-10-30T01:55:04;11.20;99.90
18225;DHT22;9237;48.590;8.854;2022-10-30T01:57:37;11.30;99.90
18225;DHT22;9237;48.590;8.854;2022-10-30T02:00:07;11.40;99.90
18225;DHT22;9237;48.590;8.854;2022-10-30T02:02:35;11.50;99.90
18225;DHT22;9237;48.590;8.854;2022-10-30T02:05:06;11.60;99.90
18225;DHT22;9237;48.590;8.854;2022-10-30T02:07:34;11.60;99.90
18225;DHT22;9237;48.590;8.854;2022-10-30T02:10:01;11.50;99.90
18225;DHT22;9237;48.590;8.854;2022-10-30T02:12:28;11.60;99.90
18225;DHT22;9237;48.590;8.854;2022-10-30T02:14:57;11.60;99.90
18225;DHT22;9237;48.590;8.854;2022-10-30T02:17:26;11.70;99.90
18225;DHT22;9237;48.590;8.854;2022-10-30T02:19:53;11.60;99.90
18225;DHT22;9237;48.590;8.854;2022-10-30T02:22:21;11.60;99.90
18225;DHT22;9237;48.590;8.854;2022-10-30T02:24:49;11.50;99.90
18225;DHT22;9237;48.590;8.854;2022-10-30T02:27:16;11.40;99.90
18225;DHT22;9237;48.590;8.854;2022-10-30T02:29:43;11.30;99.90
18225;DHT22;9237;48.590;8.854;2022-10-30T02:32:09;11.20;99.90
18225;DHT22;9237;48.590;8.854;2022-10-30T02:34:36;11.10;99.90
18225;DHT22;9237;48.590;8.854;2022-10-30T02:37:03;11.00;99.90
18225;DHT22;9237;48.590;8.854;2022-10-30T02:39:31;10.90;99.90
18225;DHT22;9237;48.590;8.854;2022-10-30T02:41:58;10.80;99.90
18225;DHT22;9237;48.590;8.854;2022-10-30T02:44:26;10.80;99.90
18225;DHT22;9237;48.590;8.854;2022-10-30T02:46:53;10.70;99.90
18225;DHT22;9237;48.590;8.854;2022-10-30T02:49:19;10.70;99.90
18225;DHT22;9237;48.590;8.854;2022-10-30T02:51:46;10.60;99.90
18225;DHT22;9237;48.590;8.854;2022-10-30T02:54:13;10.60;99.90
18225;DHT22;9237;48.590;8.854;2022-10-30T02:56:41;10.60;99.90
18225;DHT22;9237;48.590;8.854;2022-10-30T02:59:08;10.50;99.90
18225;DHT22;9237;48.590;8.854;2022-10-30T03:01:35;10.50;99.90
18225;DHT22;9237;48.590;8.854;2022-10-30T03:04:02;10.60;99.90
18225;DHT22;9237;48.590;8.854;2022-10-30T03:06:29;10.70;99.90
18225;DHT22;9237;48.590;8.854;2022-10-30T03:08:56;10.70;99.90
18225;DHT22;9237;48.590;8.854;2022-10-30T03:11:23;10.60;99.90
18225;DHT22;9237;48.590;8.854;2022-10-30T03:13:51;10.50;99.90
18225;DHT22;9237;48.590;8.854;2022-10-30T03:16:19;10.40;99.90
18225;DHT22;9237;48.590;8.854;2022-10-30T03:18:47;10.30;99.90
18225;DHT22;9237;48.590;8.854;2022-10-30T03:21:16;10.30;99.90
18225;DHT22;9237;48.590;8.854;2022-10-30T03:23:43;10.30;99.90
18225;DHT22;9237;48.590;8.854;2022-10-30T03:26:10;10.20;99.90
18225;DHT22;9237;48.590;8.854;2022-10-30T03:28:37;10.30;99.90
18225;DHT22;9237;48.590;8.854;2022-10-30T03:31:07;10.20;99.90
18225;DHT22;9237;48.590;8.854;2022-10-30T03:33:35;10.20;99.90
18225;DHT22;9237;48.590;8.854;2022-10-30T03:36:03;10.20;99.90
18225;DHT22;9237;48.590;8.854;2022-10-30T03:38:30;10.10;99.90
18225;DHT22;9237;48.590;8.854;2022-10-30T03:40:57;10.10;99.90
18225;DHT22;9237;48.590;8.854;2022-10-30T03:43:24;10.10;99.90
18225;DHT22;9237;48.590;8.854;2022-10-30T03:45:53;10.10;99.90
18225;DHT22;9237;48.590;8.854;2022-10-30T03:48:23;10.10;99.90
18225;DHT22;9237;48.590;8.854;2022-10-30T03:50:51;10.10;99.90
18225;DHT22;9237;48.590;8.854;2022-10-30T03:53:18;10.10;99.90
18225;DHT22;9237;48.590;8.854;2022-10-30T03:55:45;10.30;99.90
18225;DHT22;9237;48.590;8.854;2022-10-30T03:58:12;10.40;99.90
18225;DHT22;9237;48.590;8.854;2022-10-30T04:00:38;10.50;99.90
18225;DHT22;9237;48.590;8.854;2022-10-30T04:03:06;10.30;99.90
18225;DHT22;9237;48.590;8.854;2022-10-30T04:05:35;10.10;99.90
18225;DHT22;9237;48.590;8.854;2022-10-30T04:08:04;10.00;99.90
18225;DHT22;9237;48.590;8.854;2022-10-30T04:10:32;9.80;99.90
18225;DHT22;9237;48.590;8.854;2022-10-30T04:13:00;9.80;99.90
18225;DHT22;9237;48.590;8.854;2022-10-30T04:15:27;9.80;99.90
18225;DHT22;9237;48.590;8.854;2022-10-30T04:17:54;9.90;99.90
18225;DHT22;9237;48.590;8.854;2022-10-30T04:20:22;9.80;99.90
18225;DHT22;9237;48.590;8.854;2022-10-30T04:22:55;9.60;99.90
18225;DHT22;9237;48.590;8.854;2022-10-30T04:25:22;9.60;99.90
18225;DHT22;9237;48.590;8.854;2022-10-30T04:27:49;9.60;99.90
18225;DHT22;9237;48.590;8.854;2022-10-30T04:30:18;9.60;99.90
18225;DHT22;9237;48.590;8.854;2022-10-30T04:32:46;9.60;99.90
18225;DHT22;9237;48.590;8.854;2022-10-30T04:35:13;9.70;99.90
18225;DHT22;9237;48.590;8.854;2022-10-30T04:37:40;9.90;99.90
18225;DHT22;9237;48.590;8.854;2022-10-30T04:40:09;10.00;99.90
18225;DHT22;9237;48.590;8.854;2022-10-30T04:42:36;10.00;99.90
18225;DHT22;9237;48.590;8.854;2022-10-30T04:45:04;9.80;99.90
18225;DHT22;9237;48.590;8.854;2022-10-30T04:47:31;9.70;99.90
18225;DHT22;9237;48.590;8.854;2022-10-30T04:49:58;9.60;99.90
18225;DHT22;9237;48.590;8.854;2022-10-30T04:52:26;9.50;99.90
18225;DHT22;9237;48.590;8.854;2022-10-30T04:54:53;9.50;99.90
18225;DHT22;9237;48.590;8.854;2022-10-30T04:57:22;9.50;99.90
18225;DHT22;9237;48.590;8.854;2022-10-30T04:59:48;9.40;99.90
18225;DHT22;9237;48.590;8.854;2022-10-30T05:02:15;9.40;99.90
18225;DHT22;9237;48.590;8.854;2022-10-30T05:04:44;9.30;99.90
18225;DHT22;9237;48.590;8.854;2022-10-30T05:07:11;9.40;99.90
18225;DHT22;9237;48.590;8.854;2022-10-30T05:09:38;9.50;99.90
18225;DHT22;9237;48.590;8.854;2022-10-30T05:12:05;9.50;99.90
18225;DHT22;9237;48.590;8.854;2022-10-30T05:14:34;9.40;99.90
18225;DHT22;9237;48.590;8.854;2022-10-30T05:17:01;9.30;99.90
18225;DHT22;9237;48.590;8.854;2022-10-30T05:19:28;9.20;99.90
18225;DHT22;9237;48.590;8.854;2022-10-30T05:21:55;9.20;99.90
18225;DHT22;9237;48.590;8.854;2022-10-30T05:24:21;9.10;99.90
18225;DHT22;9237;48.590;8.854;2022-10-30T05:26:49;9.00;99.90
18225;DHT22;9237;48.590;8.854;2022-10-30T05:29:16;9.10;99.90
18225;DHT22;9237;48.590;8.854;2022-10-30T05:31:44;9.20;99.90
18225;DHT22;9237;48.590;8.854;2022-10-30T05:34:10;9.20;99.90
18225;DHT22;9237;48.590;8.854;2022-10-30T05:36:37;9.10;99.90
18225;DHT22;9237;48.590;8.854;2022-10-30T05:39:04;9.00;99.90
18225;DHT22;9237;48.590;8.854;2022-10-30T05:41:31;9.00;99.90
18225;DHT22;9237;48.590;8.854;2022-10-30T05:43:58;8.90;99.90
18225;DHT22;9237;48.590;8.854;2022-10-30T05:46:25;8.90;99.90
18225;DHT22;9237;48.590;8.854;2022-10-30T05:48:53;8.90;99.90
18225;DHT22;9237;48.590;8.854;2022-10-30T05:51:20;8.80;99.90
18225;DHT22;9237;48.590;8.854;2022-10-30T05:53:47;8.80;99.90
18225;DHT22;9237;48.590;8.854;2022-10-30T05:56:14;8.90;99.90
18225;DHT22;9237;48.590;8.854;2022-10-30T05:58:41;8.90;99.90
18225;DHT22;9237;48.590;8.854;2022-10-30T06:01:08;8.90;99.90
18225;DHT22;9237;48.590;8.854;2022-10-30T06:03:35;8.90;99.90
18225;DHT22;9237;48.590;8.854;2022-10-30T06:06:03;9.00;99.90
18225;DHT22;9237;48.590;8.854;2022-10-30T06:08:30;9.00;99.90
18225;DHT22;9237;48.590;8.854;2022-10-30T06:10:57;8.90;99.90
18225;DHT22;9237;48.590;8.854;2022-10-30T06:13:23;8.80;99.90
18225;DHT22;9237;48.590;8.854;2022-10-30T06:15:52;8.80;99.90
18225;DHT22;9237;48.590;8.854;2022-10-30T06:18:19;8.90;99.90
18225;DHT22;9237;48.590;8.854;2022-10-30T06:20:46;9.20;99.90
18225;DHT22;9237;48.590;8.854;2022-10-30T06:23:14;9.10;99.90
18225;DHT22;9237;48.590;8.854;2022-10-30T06:25:41;9.10;99.90
18225;DHT22;9237;48.590;8.854;2022-10-30T06:28:09;9.00;99.90
18225;DHT22;9237;48.590;8.854;2022-10-30T06:30:38;9.00;99.90
18225;DHT22;9237;48.590;8.854;2022-10-30T06:33:06;9.00;99.90
18225;DHT22;9237;48.590;8.854;2022-10-30T06:35:33;9.20;99.90
18225;DHT22;9237;48.590;8.854;2022-10-30T06:38:00;9.30;99.90
18225;DHT22;9237;48.590;8.854;2022-10-30T06:40:28;9.40;99.90
18225;DHT22;9237;48.590;8.854;2022-10-30T06:42:55;9.30;99.90
18225;DHT22;9237;48.590;8.854;2022-10-30T06:45:23;9.30;99.90
18225;DHT22;9237;48.590;8.854;2022-10-30T06:47:50;9.40;99.90
18225;DHT22;9237;48.590;8.854;2022-10-30T06:50:18;9.60;99.90
18225;DHT22;9237;48.590;8.854;2022-10-30T06:52:46;9.60;99.90
18225;DHT22;9237;48.590;8.854;2022-10-30T06:55:14;9.70;99.90
18225;DHT22;9237;48.590;8.854;2022-10-30T06:57:42;9.90;99.90
18225;DHT22;9237;48.590;8.854;2022-10-30T07:00:10;10.00;99.90
18225;DHT22;9237;48.590;8.854;2022-10-30T07:02:37;10.20;99.90
18225;DHT22;9237;48.590;8.854;2022-10-30T07:05:04;10.40;99.90
18225;DHT22;9237;48.590;8.854;2022-10-30T07:07:31;10.70;99.90
18225;DHT22;9237;48.590;8.854;2022-10-30T07:09:58;10.90;99.90
18225;DHT22;9237;48.590;8.854;2022-10-30T07:12:25;11.10;99.90
18225;DHT22;9237;48.590;8.854;2022-10-30T07:14:53;11.30;99.90
18225;DHT22;9237;48.590;8.854;2022-10-30T07:17:20;11.40;99.90
18225;DHT22;9237;48.590;8.854;2022-10-30T07:19:46;11.40;99.90
18225;DHT22;9237;48.590;8.854;2022-10-30T07:22:13;11.40;99.90
18225;DHT22;9237;48.590;8.854;2022-10-30T07:24:40;11.30;99.90
18225;DHT22;9237;48.590;8.854;2022-10-30T07:27:07;11.20;99.90
18225;DHT22;9237;48.590;8.854;2022-10-30T07:29:33;11.20;99.90
18225;DHT22;9237;48.590;8.854;2022-10-30T07:32:02;11.20;99.90
18225;DHT22;9237;48.590;8.854;2022-10-30T07:34:29;11.20;99.90
18225;DHT22;9237;48.590;8.854;2022-10-30T07:36:56;11.30;99.90
18225;DHT22;9237;48.590;8.854;2022-10-30T07:39:22;11.30;99.90
18225;DHT22;9237;48.590;8.854;2022-10-30T07:41:49;11.40;99.90
18225;DHT22;9237;48.590;8.854;2022-10-30T07:44:16;11.40;99.90
18225;DHT22;9237;48.590;8.854;2022-10-30T07:46:43;11.50;99.90
18225;DHT22;9237;48.590;8.854;2022-10-30T07:49:11;11.60;99.90
18225;DHT22;9237;48.590;8.854;2022-10-30T07:51:38;11.80;99.90
18225;DHT22;9237;48.590;8.854;2022-10-30T07:54:05;12.00;99.90
18225;DHT22;9237;48.590;8.854;2022-10-30T07:56:32;12.10;99.90
18225;DHT22;9237;48.590;8.854;2022-10-30T07:58:58;12.20;99.90
18225;DHT22;9237;48.590;8.854;2022-10-30T08:01:25;12.40;99.90
18225;DHT22;9237;48.590;8.854;2022-10-30T08:03:52;12.60;99.90
18225;DHT22;9237;48.590;8.854;2022-10-30T08:06:21;12.60;99.90
18225;DHT22;9237;48.590;8.854;2022-10-30T08:08:47;12.70;99.90
18225;DHT22;9237;48.590;8.854;2022-10-30T08:11:14;12.80;99.90
18225;DHT22;9237;48.590;8.854;2022-10-30T08:13:41;12.90;99.90
18225;DHT22;9237;48.590;8.854;2022-10-30T08:16:08;13.10;99.90
18225;DHT22;9237;48.590;8.854;2022-10-30T08:18:35;13.20;99.90
18225;DHT22;9237;48.590;8.854;2022-10-30T08:21:03;13.20;99.90
18225;DHT22;9237;48.590;8.854;2022-10-30T08:23:32;13.40;99.90
18225;DHT22;9237;48.590;8.854;2022-10-30T08:25:59;13.40;99.90
18225;DHT22;9237;48.590;8.854;2022-10-30T08:28:26;13.60;99.90
18225;DHT22;9237;48.590;8.854;2022-10-30T08:30:53;13.70;99.90
18225;DHT22;9237;48.590;8.854;2022-10-30T08:33:20;13.80;99.90
18225;DHT22;9237;48.590;8.854;2022-10-30T08:35:47;13.90;99.90
18225;DHT22;9237;48.590;8.854;2022-10-30T08:38:15;14.00;99.90
18225;DHT22;9237;48.590;8.854;2022-10-30T08:40:43;14.10;99.90
18225;DHT22;9237;48.590;8.854;2022-10-30T08:43:10;14.20;99.90
18225;DHT22;9237;48.590;8.854;2022-10-30T08:45:37;14.30;99.90
18225;DHT22;9237;48.590;8.854;2022-10-30T08:48:05;14.30;99.90
18225;DHT22;9237;48.590;8.854;2022-10-30T08:50:32;14.40;99.90
18225;DHT22;9237;48.590;8.854;2022-10-30T08:53:00;14.50;99.90
18225;DHT22;9237;48.590;8.854;2022-10-30T08:55:27;14.60;99.90
18225;DHT22;9237;48.590;8.854;2022-10-30T08:57:55;14.70;99.90
18225;DHT22;9237;48.590;8.854;2022-10-30T09:00:22;14.70;99.90
18225;DHT22;9237;48.590;8.854;2022-10-30T09:02:49;14.80;99.90
18225;DHT22;9237;48.590;8.854;2022-10-30T09:05:16;14.90;99.90
18225;DHT22;9237;48.590;8.854;2022-10-30T09:07:43;15.00;99.90
18225;DHT22;9237;48.590;8.854;2022-10-30T09:10:10;15.00;99.90
18225;DHT22;9237;48.590;8.854;2022-10-30T09:12:37;15.20;99.90
18225;DHT22;9237;48.590;8.854;2022-10-30T09:15:07;15.30;99.90
18225;DHT22;9237;48.590;8.854;2022-10-30T09:17:34;15.40;99.90
18225;DHT22;9237;48.590;8.854;2022-10-30T09:20:01;15.50;99.90
18225;DHT22;9237;48.590;8.854;2022-10-30T09:22:27;15.60;99.90
18225;DHT22;9237;48.590;8.854;2022-10-30T09:24:54;15.70;99.90
18225;DHT22;9237;48.590;8.854;2022-10-30T09:27:21;15.90;99.90
18225;DHT22;9237;48.590;8.854;2022-10-30T09:29:48;15.90;99.90
18225;DHT22;9237;48.590;8.854;2022-10-30T09:32:16;16.00;99.90
18225;DHT22;9237;48.590;8.854;2022-10-30T09:34:43;16.10;99.90
18225;DHT22;9237;48.590;8.854;2022-10-30T09:37:10;16.30;99.90
18225;DHT22;9237;48.590;8.854;2022-10-30T09:39:36;16.40;99.90
18225;DHT22;9237;48.590;8.854;2022-10-30T09:42:28;16.40;99.90
18225;DHT22;9237;48.590;8.854;2022-10-30T09:47:54;16.60;99.90
18225;DHT22;9237;48.590;8.854;2022-10-30T09:50:27;16.70;99.90
18225;DHT22;9237;48.590;8.854;2022-10-30T09:53:02;16.80;99.90
18225;DHT22;9237;48.590;8.854;2022-10-30T09:55:39;17.00;99.90
18225;DHT22;9237;48.590;8.854;2022-10-30T09:58:17;17.00;99.90
18225;DHT22;9237;48.590;8.854;2022-10-30T10:00:51;17.20;99.90
18225;DHT22;9237;48.590;8.854;2022-10-30T10:03:31;17.20;99.90
18225;DHT22;9237;48.590;8.854;2022-10-30T10:06:01;17.40;99.90
18225;DHT22;9237;48.590;8.854;2022-10-30T10:08:32;17.50;99.90
18225;DHT22;9237;48.590;8.854;2022-10-30T10:11:04;17.60;99.90
18225;DHT22;9237;48.590;8.854;2022-10-30T10:13:37;17.80;99.90
18225;DHT22;9237;48.590;8.854;2022-10-30T10:16:15;17.90;99.90
18225;DHT22;9237;48.590;8.854;2022-10-30T10:18:47;18.00;99.90
18225;DHT22;9237;48.590;8.854;2022-10-30T10:21:22;18.20;99.90
18225;DHT22;9237;48.590;8.854;2022-10-30T10:23:50;18.30;99.90
18225;DHT22;9237;48.590;8.854;2022-10-30T10:26:26;18.40;99.90
18225;DHT22;9237;48.590;8.854;2022-10-30T10:29:11;18.50;99.90
18225;DHT22;9237;48.590;8.854;2022-10-30T10:31:47;18.60;99.90
18225;DHT22;9237;48.590;8.854;2022-10-30T10:34:53;18.80;99.90
18225;DHT22;9237;48.590;8.854;2022-10-30T10:37:32;19.00;99.90
18225;DHT22;9237;48.590;8.854;2022-10-30T10:40:17;19.10;99.90
18225;DHT22;9237;48.590;8.854;2022-10-30T10:42:54;19.10;99.90
18225;DHT22;9237;48.590;8.854;2022-10-30T10:45:33;19.20;99.90
18225;DHT22;9237;48.590;8.854;2022-10-30T10:48:30;19.30;99.90
18225;DHT22;9237;48.590;8.854;2022-10-30T10:51:03;19.50;99.90
18225;DHT22;9237;48.590;8.854;2022-10-30T10:53:37;19.60;99.90
18225;DHT22;9237;48.590;8.854;2022-10-30T10:56:07;19.70;99.90
18225;DHT22;9237;48.590;8.854;2022-10-30T10:58:43;19.80;99.90
18225;DHT22;9237;48.590;8.854;2022-10-30T11:01:13;20.00;99.90
18225;DHT22;9237;48.590;8.854;2022-10-30T11:03:49;20.20;99.90
18225;DHT22;9237;48.590;8.854;2022-10-30T11:06:21;20.20;99.90
18225;DHT22;9237;48.590;8.854;2022-10-30T11:08:48;20.40;99.90
18225;DHT22;9237;48.590;8.854;2022-10-30T11:11:17;20.40;99.90
18225;DHT22;9237;48.590;8.854;2022-10-30T11:13:44;20.40;99.90
18225;DHT22;9237;48.590;8.854;2022-10-30T11:16:20;20.50;99.90
18225;DHT22;9237;48.590;8.854;2022-10-30T11:18:52;20.50;99.90
18225;DHT22;9237;48.590;8.854;2022-10-30T11:21:22;20.60;99.90
18225;DHT22;9237;48.590;8.854;2022-10-30T11:23:50;20.60;99.90
18225;DHT22;9237;48.590;8.854;2022-10-30T11:26:32;20.70;99.90
18225;DHT22;9237;48.590;8.854;2022-10-30T11:29:11;20.70;99.90
18225;DHT22;9237;48.590;8.854;2022-10-30T11:31:39;20.80;99.90
18225;DHT22;9237;48.590;8.854;2022-10-30T11:34:24;20.90;99.90
18225;DHT22;9237;48.590;8.854;2022-10-30T11:36:55;21.00;99.90
18225;DHT22;9237;48.590;8.854;2022-10-30T11:39:23;21.10;99.90
18225;DHT22;9237;48.590;8.854;2022-10-30T11:41:56;21.20;99.90
18225;DHT22;9237;48.590;8.854;2022-10-30T11:44:27;21.40;99.90
18225;DHT22;9237;48.590;8.854;2022-10-30T11:46:55;21.60;99.90
18225;DHT22;9237;48.590;8.854;2022-10-30T11:49:27;21.70;99.90
18225;DHT22;9237;48.590;8.854;2022-10-30T11:51:57;21.90;99.90
18225;DHT22;9237;48.590;8.854;2022-10-30T11:54:25;22.00;99.90
18225;DHT22;9237;48.590;8.854;2022-10-30T11:56:52;22.10;99.90
18225;DHT22;9237;48.590;8.854;2022-10-30T11:59:22;22.10;99.90
18225;DHT22;9237;48.590;8.854;2022-10-30T12:02:01;22.30;99.90
18225;DHT22;9237;48.590;8.854;2022-10-30T12:04:29;22.50;99.90
18225;DHT22;9237;48.590;8.854;2022-10-30T12:07:16;22.70;99.90
18225;DHT22;9237;48.590;8.854;2022-10-30T12:09:45;22.70;99.90
18225;DHT22;9237;48.590;8.854;2022-10-30T12:12:20;22.70;99.90
18225;DHT22;9237;48.590;8.854;2022-10-30T12:14:48;22.70;99.90
18225;DHT22;9237;48.590;8.854;2022-10-30T12:17:15;22.70;99.90
18225;DHT22;9237;48.590;8.854;2022-10-30T12:19:48;22.70;99.90
18225;DHT22;9237;48.590;8.854;2022-10-30T12:22:29;22.80;99.90
18225;DHT22;9237;48.590;8.854;2022-10-30T12:24:57;22.80;99.90
18225;DHT22;9237;48.590;8.854;2022-10-30T12:27:26;22.80;99.90
18225;DHT22;9237;48.590;8.854;2022-10-30T12:30:03;22.80;99.90
18225;DHT22;9237;48.590;8.854;2022-10-30T12:32:37;22.80;99.90
18225;DHT22;9237;48.590;8.854;2022-10-30T12:35:15;22.90;99.90
18225;DHT22;9237;48.590;8.854;2022-10-30T12:37:45;23.00;99.90
18225;DHT22;9237;48.590;8.854;2022-10-30T12:40:17;23.10;99.90
18225;DHT22;9237;48.590;8.854;2022-10-30T12:42:49;23.20;99.90
18225;DHT22;9237;48.590;8.854;2022-10-30T12:45:22;23.30;99.90
18225;DHT22;9237;48.590;8.854;2022-10-30T12:47:54;23.40;99.90
18225;DHT22;9237;48.590;8.854;2022-10-30T12:50:26;23.40;99.90
18225;DHT22;9237;48.590;8.854;2022-10-30T12:53:00;23.30;99.90
18225;DHT22;9237;48.590;8.854;2022-10-30T12:55:32;23.30;99.90
18225;DHT22;9237;48.590;8.854;2022-10-30T12:58:07;23.50;99.90
18225;DHT22;9237;48.590;8.854;2022-10-30T13:00:42;23.50;99.90
18225;DHT22;9237;48.590;8.854;2022-10-30T13:03:21;23.60;99.90
18225;DHT22;9237;48.590;8.854;2022-10-30T13:05:52;23.70;99.90
18225;DHT22;9237;48.590;8.854;2022-10-30T13:08:24;23.80;99.90
18225;DHT22;9237;48.590;8.854;2022-10-30T13:10:55;23.90;99.90
18225;DHT22;9237;48.590;8.854;2022-10-30T13:13:28;24.10;99.90
18225;DHT22;9237;48.590;8.854;2022-10-30T13:15:57;24.30;99.90
18225;DHT22;9237;48.590;8.854;2022-10-30T13:18:26;24.40;99.90
18225;DHT22;9237;48.590;8.854;2022-10-30T13:21:03;24.40;99.90
18225;DHT22;9237;48.590;8.854;2022-10-30T13:23:40;24.50;99.90
18225;DHT22;9237;48.590;8.854;2022-10-30T13:26:15;24.60;99.90
18225;DHT22;9237;48.590;8.854;2022-10-30T13:28:50;24.60;99.90
18225;DHT22;9237;48.590;8.854;2022-10-30T13:31:23;24.70;99.90
18225;DHT22;9237;48.590;8.854;2022-10-30T13:33:58;24.70;99.90
18225;DHT22;9237;48.590;8.854;2022-10-30T13:36:32;24.80;99.90
18225;DHT22;9237;48.590;8.854;2022-10-30T13:39:15;24.90;99.90
18225;DHT22;9237;48.590;8.854;2022-10-30T13:41:56;24.80;99.90
18225;DHT22;9237;48.590;8.854;2022-10-30T13:44:36;24.60;99.90
18225;DHT22;9237;48.590;8.854;2022-10-30T13:47:14;24.60;99.60
18225;DHT22;9237;48.590;8.854;2022-10-30T13:49:58;24.80;99.20
18225;DHT22;9237;48.590;8.854;2022-10-30T13:52:29;25.00;99.90
18225;DHT22;9237;48.590;8.854;2022-10-30T13:55:02;25.10;98.60
18225;DHT22;9237;48.590;8.854;2022-10-30T13:57:36;25.30;99.20
18225;DHT22;9237;48.590;8.854;2022-10-30T14:00:13;25.70;99.90
18225;DHT22;9237;48.590;8.854;2022-10-30T14:03:10;26.20;99.90
18225;DHT22;9237;48.590;8.854;2022-10-30T14:05:43;26.50;99.80
18225;DHT22;9237;48.590;8.854;2022-10-30T14:08:17;26.70;98.80
18225;DHT22;9237;48.590;8.854;2022-10-30T14:10:51;26.90;98.20
18225;DHT22;9237;48.590;8.854;2022-10-30T14:13:24;27.00;97.80
18225;DHT22;9237;48.590;8.854;2022-10-30T14:15:58;26.80;97.50
18225;DHT22;9237;48.590;8.854;2022-10-30T14:18:41;26.60;97.90
18225;DHT22;9237;48.590;8.854;2022-10-30T14:21:30;26.50;98.10
18225;DHT22;9237;48.590;8.854;2022-10-30T14:24:02;26.60;98.30
18225;DHT22;9237;48.590;8.854;2022-10-30T14:26:31;26.20;98.90
18225;DHT22;9237;48.590;8.854;2022-10-30T14:28:57;25.90;99.10
18225;DHT22;9237;48.590;8.854;2022-10-30T14:31:44;25.70;99.70
18225;DHT22;9237;48.590;8.854;2022-10-30T14:37:08;25.40;99.90
18225;DHT22;9237;48.590;8.854;2022-10-30T14:39:38;25.20;99.90
18225;DHT22;9237;48.590;8.854;2022-10-30T14:42:12;25.00;99.90
18225;DHT22;9237;48.590;8.854;2022-10-30T14:45:00;24.70;99.90
18225;DHT22;9237;48.590;8.854;2022-10-30T14:47:54;24.60;99.90
18225;DHT22;9237;48.590;8.854;2022-10-30T14:50:45;24.10;99.90
18225;DHT22;9237;48.590;8.854;2022-10-30T14:53:29;23.80;99.90
18225;DHT22;9237;48.590;8.854;2022-10-30T14:56:02;23.60;99.90
18225;DHT22;9237;48.590;8.854;2022-10-30T14:58:33;23.50;99.90
18225;DHT22;9237;48.590;8.854;2022-10-30T15:01:32;23.50;99.90
18225;DHT22;9237;48.590;8.854;2022-10-30T15:04:17;23.80;99.90
18225;DHT22;9237;48.590;8.854;2022-10-30T15:06:58;23.90;99.90
18225;DHT22;9237;48.590;8.854;2022-10-30T15:09:50;23.90;99.90
18225;DHT22;9237;48.590;8.854;2022-10-30T15:12:35;24.00;99.90
18225;DHT22;9237;48.590;8.854;2022-10-30T15:15:09;24.10;99.90
18225;DHT22;9237;48.590;8.854;2022-10-30T15:17:39;24.10;99.90
18225;DHT22;9237;48.590;8.854;2022-10-30T15:20:14;24.00;99.90
18225;DHT22;9237;48.590;8.854;2022-10-30T15:22:41;23.80;99.90
18225;DHT22;9237;48.590;8.854;2022-10-30T15:25:15;23.30;99.90
18225;DHT22;9237;48.590;8.854;2022-10-30T15:27:45;22.80;99.90
18225;DHT22;9237;48.590;8.854;2022-10-30T15:30:17;22.40;99.90
18225;DHT22;9237;48.590;8.854;2022-10-30T15:32:44;22.10;99.90
18225;DHT22;9237;48.590;8.854;2022-10-30T15:35:15;21.80;99.90
18225;DHT22;9237;48.590;8.854;2022-10-30T15:38:03;21.50;99.90
18225;DHT22;9237;48.590;8.854;2022-10-30T15:40:30;21.20;99.90
18225;DHT22;9237;48.590;8.854;2022-10-30T15:43:00;20.90;99.90
18225;DHT22;9237;48.590;8.854;2022-10-30T15:45:32;20.60;99.90
18225;DHT22;9237;48.590;8.854;2022-10-30T15:48:03;20.40;99.90
18225;DHT22;9237;48.590;8.854;2022-10-30T15:50:31;20.10;99.90
18225;DHT22;9237;48.590;8.854;2022-10-30T15:52:59;19.90;99.90
18225;DHT22;9237;48.590;8.854;2022-10-30T15:55:28;19.70;99.90
18225;DHT22;9237;48.590;8.854;2022-10-30T15:57:57;19.50;99.90
18225;DHT22;9237;48.590;8.854;2022-10-30T16:00:26;19.30;99.90
18225;DHT22;9237;48.590;8.854;2022-10-30T16:03:04;19.00;99.90
18225;DHT22;9237;48.590;8.854;2022-10-30T16:05:32;18.80;99.90
18225;DHT22;9237;48.590;8.854;2022-10-30T16:08:01;18.60;99.90
18225;DHT22;9237;48.590;8.854;2022-10-30T16:10:32;18.40;99.90
18225;DHT22;9237;48.590;8.854;2022-10-30T16:13:00;18.10;99.90
18225;DHT22;9237;48.590;8.854;2022-10-30T16:15:29;18.00;99.90
18225;DHT22;9237;48.590;8.854;2022-10-30T16:18:14;17.80;99.90